Aviation Digital Data Service (ADDS)

Output produced by METARs form (2217 UTC 25 January 2015)
found at http://aviationweather.gov/adds/metars/
 
KLFT 252153Z 24014G28KT 10SM CLR 18/07 A2991 RMK AO2 PK WND 26029/2100 SLP128 T01780072